Terminal Aerodrome Forecast
Issued by NWS Miami, FL

Current Version | Previous Version | Text Only | Print | Product List | Glossary On
Versions: 1 2 3 4 5 6 7 8 9 10 11 12 13 14 15 16 17 18 19 20 21 22 23 24
000
FTUS42 KMFL 311120
TAFAPF
TAF
KAPF 311120Z 3112/0112 VRB03KT P6SM VCSH SCT025 BKN040
     FM311400 28008KT P6SM VCSH SCT040 SCT250
     FM311900 30010G20KT P6SM SCT040
     FM010100 31008KT P6SM SKC=

USA.gov is the U.S. government's official web portal to all federal, state and local government web resources and services.